Black Mesa, Arizona
Current Conditions -  °F | °C
As of 11:53 PM on Friday 28 Nov 2014 (Local Time) from KPGA Reporting Station
Clear Clear  
Wind Chill:   Ceiling: Unl
Heat Index:   Visibility: 9mi
Dew Point: -7°   Wind: 0mph
Humidity: 45%   Direction: NA
Pressure: 29.98"   Gusts: NA
Location:  36.6859°N, 110.268°W
Report Text: KPGA 290653Z AUTO 00000KT 9SM CLR 04/M07 A2998 RMK AO2 SLP139 T00441067 401330006 TSNO
Loading
Personal Weather Stations






























Interactive Weather Map New forecast layout! Learn more

10-Day Weather Forecast

Advertisements
Track Severe Weather on mobile